createdAt,value
2018-04-23T00:01:11.167Z,7.90
2018-04-23T00:03:38.457Z,8.27
2018-04-23T00:06:05.162Z,9.10
2018-04-23T00:08:31.856Z,8.50
2018-04-23T00:10:58.538Z,8.67
2018-04-23T00:13:25.220Z,9.47
2018-04-23T00:15:51.903Z,9.13
2018-04-23T00:18:19.328Z,9.30
2018-04-23T00:20:46.016Z,8.57
2018-04-23T00:23:12.736Z,8.67
2018-04-23T00:25:40.203Z,8.97
2018-04-23T00:28:06.866Z,9.93
2018-04-23T00:30:33.616Z,9.40
2018-04-23T00:33:00.290Z,9.80
2018-04-23T00:35:26.990Z,8.70
2018-04-23T00:37:53.671Z,9.10
2018-04-23T00:40:20.336Z,8.90
2018-04-23T00:42:47.003Z,9.23
2018-04-23T00:45:13.678Z,9.00
2018-04-23T00:47:40.345Z,8.77
2018-04-23T00:50:07.768Z,9.60
2018-04-23T00:52:34.484Z,9.17
2018-04-23T00:55:01.151Z,9.27
2018-04-23T00:57:27.828Z,9.73
2018-04-23T00:59:54.519Z,9.50
2018-04-23T01:02:21.216Z,9.27
2018-04-23T01:04:47.911Z,10.33
2018-04-23T01:07:14.590Z,12.47
2018-04-23T01:09:41.315Z,11.80
2018-04-23T01:12:08.083Z,11.10
2018-04-23T01:14:34.798Z,12.33
2018-04-23T01:17:01.506Z,9.93
2018-04-23T01:19:28.991Z,10.53
2018-04-23T01:21:55.757Z,11.67
2018-04-23T01:24:22.548Z,11.37
2018-04-23T01:26:49.998Z,12.07
2018-04-23T01:29:17.468Z,11.70
2018-04-23T01:31:44.932Z,11.33
2018-04-23T01:34:11.663Z,11.77
2018-04-23T01:36:39.126Z,11.17
2018-04-23T01:39:05.906Z,10.90
2018-04-23T01:41:32.628Z,13.97
2018-04-23T01:43:59.368Z,14.00
2018-04-23T01:46:26.108Z,12.70
2018-04-23T01:48:52.842Z,12.60
2018-04-23T01:51:19.563Z,13.93
2018-04-23T01:53:47.018Z,14.63
2018-04-23T01:56:14.475Z,14.43
2018-04-23T01:58:41.918Z,15.03
2018-04-23T02:01:09.414Z,15.43
2018-04-23T02:03:36.163Z,13.90
2018-04-23T02:06:02.940Z,13.23
2018-04-23T02:08:29.668Z,13.57
2018-04-23T02:10:56.370Z,15.63
2018-04-23T02:13:23.108Z,14.80
2018-04-23T02:15:49.827Z,15.90
2018-04-23T02:18:17.288Z,14.03
2018-04-23T02:20:44.011Z,14.70
2018-04-23T02:23:11.495Z,13.03
2018-04-23T02:25:38.211Z,12.67
2018-04-23T02:28:05.690Z,11.80
2018-04-23T02:30:32.404Z,12.20
2018-04-23T02:32:59.841Z,12.10
2018-04-23T02:35:26.563Z,13.27
2018-04-23T02:37:53.290Z,12.50
2018-04-23T02:40:19.991Z,11.90
2018-04-23T02:42:46.706Z,11.30
2018-04-23T02:45:13.438Z,11.10
2018-04-23T02:47:40.150Z,11.77
2018-04-23T02:50:06.862Z,12.43
2018-04-23T02:52:33.631Z,11.83
2018-04-23T02:55:00.321Z,11.03
2018-04-23T02:57:27.036Z,11.90
2018-04-23T02:59:53.789Z,13.80
2018-04-23T03:02:21.271Z,14.63
2018-04-23T03:04:48.017Z,10.53
2018-04-23T03:07:14.796Z,10.20
2018-04-23T03:09:41.566Z,9.97
2018-04-23T03:12:09.086Z,9.80
2018-04-23T03:14:35.816Z,11.30
2018-04-23T03:17:02.578Z,12.57
2018-04-23T03:19:29.305Z,12.20
2018-04-23T03:21:56.015Z,13.67
2018-04-23T03:24:22.732Z,12.30
2018-04-23T03:26:50.176Z,12.60
2018-04-23T03:29:16.902Z,12.13
2018-04-23T03:31:43.644Z,11.93
2018-04-23T03:34:10.363Z,16.33
2018-04-23T03:36:37.098Z,18.20
2018-04-23T03:39:03.906Z,17.10
2018-04-23T03:41:30.608Z,15.10
2018-04-23T03:43:58.059Z,15.20
2018-04-23T03:46:24.778Z,17.37
2018-04-23T03:48:51.488Z,21.37
2018-04-23T03:51:18.267Z,22.10
2018-04-23T03:53:44.979Z,19.67
2018-04-23T03:56:11.711Z,17.93
2018-04-23T03:58:38.448Z,15.67
2018-04-23T04:01:05.216Z,11.47
2018-04-23T04:03:31.940Z,10.47
2018-04-23T04:05:58.723Z,10.23
2018-04-23T04:08:26.216Z,10.80
2018-04-23T04:10:52.978Z,10.53
2018-04-23T04:13:38.116Z,11.43
2018-04-23T04:16:23.225Z,11.53
2018-04-23T04:18:50.024Z,12.90
2018-04-23T04:21:16.750Z,12.40
2018-04-23T04:23:43.568Z,12.93
2018-04-23T04:26:10.285Z,12.57
2018-04-23T04:28:37.010Z,13.00
2018-04-23T04:31:04.732Z,13.43
2018-04-23T04:33:31.488Z,14.00
2018-04-23T04:35:58.218Z,14.13
2018-04-23T04:38:25.698Z,15.63
2018-04-23T04:40:52.476Z,12.77
2018-04-23T04:43:19.203Z,12.07
2018-04-23T04:45:46.056Z,12.30
2018-04-23T04:48:12.783Z,12.57
2018-04-23T04:50:39.496Z,12.83
2018-04-23T04:53:06.226Z,12.57
2018-04-23T04:55:32.960Z,11.33
2018-04-23T04:57:59.698Z,12.23
2018-04-23T05:00:26.409Z,11.27
2018-04-23T05:02:53.876Z,11.30
2018-04-23T05:05:21.335Z,12.70
2018-04-23T05:07:48.825Z,11.50
2018-04-23T05:10:15.566Z,10.60
2018-04-23T05:12:42.329Z,10.27
2018-04-23T05:15:09.076Z,10.77
2018-04-23T05:17:35.804Z,9.33
2018-04-23T05:20:02.596Z,8.73
2018-04-23T05:22:29.308Z,8.97
2018-04-23T05:24:56.061Z,9.27
2018-04-23T05:27:23.546Z,12.03
2018-04-23T05:29:50.264Z,8.37
2018-04-23T05:32:17.745Z,8.60
2018-04-23T05:34:44.466Z,8.53
2018-04-23T05:37:11.919Z,8.50
2018-04-23T05:39:39.363Z,8.20
2018-04-23T05:42:06.136Z,8.10
2018-04-23T05:44:32.839Z,8.30
2018-04-23T05:46:59.557Z,8.77
2018-04-23T05:49:26.323Z,8.10
2018-04-23T05:51:53.076Z,8.67
2018-04-23T05:54:19.829Z,8.00
2018-04-23T05:56:46.528Z,8.80
2018-04-23T05:59:13.297Z,8.57
2018-04-23T06:01:40.765Z,9.60
2018-04-23T06:04:07.490Z,12.00
2018-04-23T06:06:34.990Z,12.63
2018-04-23T06:09:01.772Z,9.30
2018-04-23T06:11:28.514Z,10.10
2018-04-23T06:13:56.012Z,9.67
2018-04-23T06:16:22.754Z,10.33
2018-04-23T06:18:49.535Z,9.10
2018-04-23T06:21:16.280Z,9.10
2018-04-23T06:23:43.004Z,8.80
2018-04-23T06:26:09.771Z,8.83
2018-04-23T06:28:37.306Z,9.13
2018-04-23T06:31:04.059Z,9.03
2018-04-23T06:33:30.791Z,8.50
2018-04-23T06:35:57.476Z,8.53
2018-04-23T06:38:24.149Z,8.37
2018-04-23T06:40:50.836Z,8.57
2018-04-23T06:43:18.289Z,8.80
2018-04-23T06:45:45.703Z,9.50
2018-04-23T06:48:12.366Z,8.97
2018-04-23T06:50:39.054Z,8.97
2018-04-23T06:53:05.756Z,9.27
2018-04-23T06:55:33.248Z,8.53
2018-04-23T06:57:59.919Z,8.90
2018-04-23T07:00:26.639Z,9.03
2018-04-23T07:02:53.307Z,9.27
2018-04-23T07:05:20.072Z,8.63
2018-04-23T07:07:47.483Z,8.90
2018-04-23T07:10:14.185Z,9.63
2018-04-23T07:12:40.925Z,9.00
2018-04-23T07:15:07.595Z,8.97
2018-04-23T07:17:35.092Z,9.23
2018-04-23T07:20:01.800Z,9.60
2018-04-23T07:22:28.495Z,9.60
2018-04-23T07:24:55.210Z,9.47
2018-04-23T07:27:21.909Z,9.43
2018-04-23T07:29:48.594Z,9.17
2018-04-23T07:32:15.332Z,9.33
2018-04-23T07:34:42.102Z,9.63
2018-04-23T07:37:08.830Z,9.60
2018-04-23T07:39:35.563Z,9.33
2018-04-23T07:42:02.310Z,9.63
2018-04-23T07:44:29.103Z,9.03
2018-04-23T07:46:55.828Z,8.20
2018-04-23T07:49:22.573Z,8.67
2018-04-23T07:51:49.319Z,8.27
2018-04-23T07:54:16.076Z,7.90
2018-04-23T07:56:43.578Z,8.03
2018-04-23T07:59:10.328Z,7.70
2018-04-23T08:01:37.102Z,7.10
2018-04-23T08:04:03.881Z,7.23
2018-04-23T08:06:30.679Z,6.90
2018-04-23T08:08:57.424Z,7.20
2018-04-23T08:11:24.217Z,6.67
2018-04-23T08:13:51.015Z,7.37
2018-04-23T08:16:17.782Z,6.07
2018-04-23T08:18:44.524Z,6.07
2018-04-23T08:21:11.287Z,5.33
2018-04-23T08:23:38.025Z,5.93
2018-04-23T08:26:04.774Z,5.40
2018-04-23T08:28:31.517Z,4.87
2018-04-23T08:30:58.292Z,4.83
2018-04-23T08:33:25.069Z,4.97
2018-04-23T08:35:51.847Z,5.72
2018-04-23T08:38:18.634Z,5.20
2018-04-23T08:40:46.160Z,5.33
2018-04-23T08:43:12.913Z,5.43
2018-04-23T08:45:39.661Z,5.70
2018-04-23T08:48:07.196Z,5.23
2018-04-23T08:50:33.964Z,5.00
2018-04-23T08:53:01.446Z,4.53
2018-04-23T08:55:29.242Z,5.30
2018-04-23T08:57:55.998Z,5.17
2018-04-23T09:00:22.759Z,4.53
2018-04-23T09:02:50.277Z,4.55
2018-04-23T09:05:17.069Z,4.80
2018-04-23T09:07:44.609Z,5.13
2018-04-23T09:10:11.408Z,5.50
2018-04-23T09:12:38.211Z,5.90
2018-04-23T09:15:05.767Z,5.40
2018-04-23T09:17:33.328Z,4.60
2018-04-23T09:20:00.846Z,5.53
2018-04-23T09:22:27.642Z,5.05
2018-04-23T09:24:54.410Z,5.20
2018-04-23T09:27:21.188Z,5.20
2018-04-23T09:29:48.011Z,5.17
2018-04-23T09:32:14.867Z,4.97
2018-04-23T09:34:41.628Z,4.75
2018-04-23T09:37:09.108Z,4.90
2018-04-23T09:39:35.787Z,4.43
2018-04-23T09:42:02.488Z,4.30
2018-04-23T09:44:29.205Z,4.78
2018-04-23T09:46:56.682Z,4.70
2018-04-23T09:49:23.375Z,4.87
2018-04-23T09:51:50.058Z,5.30
2018-04-23T09:54:16.723Z,4.90
2018-04-23T09:56:43.411Z,4.53
2018-04-23T09:59:10.838Z,4.47
2018-04-23T10:01:37.591Z,4.90
2018-04-23T10:04:06.221Z,4.22
2018-04-23T10:06:32.939Z,4.40
2018-04-23T10:09:00.378Z,4.45
2018-04-23T10:11:27.058Z,5.12
2018-04-23T10:13:53.781Z,4.72
2018-04-23T10:16:20.508Z,4.72
2018-04-23T10:18:48.001Z,4.62
2018-04-23T10:21:14.708Z,5.68
2018-04-23T10:23:42.138Z,5.45
2018-04-23T10:26:08.828Z,6.18
2018-04-23T10:28:35.918Z,5.75
2018-04-23T10:31:02.664Z,5.62
2018-04-23T10:33:29.359Z,6.00
2018-04-23T10:35:56.083Z,5.60
2018-04-23T10:38:22.768Z,5.90
2018-04-23T10:40:49.564Z,5.75
2018-04-23T10:43:16.304Z,5.55
2018-04-23T10:45:43.051Z,5.37
2018-04-23T10:48:09.883Z,5.12
2018-04-23T10:50:36.639Z,4.15
2018-04-23T10:53:03.479Z,4.55
2018-04-23T10:55:30.252Z,4.43
2018-04-23T10:57:57.031Z,3.80
2018-04-23T11:00:24.634Z,3.70
2018-04-23T11:02:51.337Z,3.90
2018-04-23T11:05:18.031Z,4.07
2018-04-23T11:07:44.709Z,4.28
2018-04-23T11:10:12.661Z,4.40
2018-04-23T11:12:39.395Z,3.58
2018-04-23T11:15:07.796Z,3.47
2018-04-23T11:17:35.347Z,3.47
2018-04-23T11:20:02.829Z,4.10
2018-04-23T11:22:29.529Z,4.10
2018-04-23T11:24:56.308Z,7.65
2018-04-23T11:27:23.006Z,5.10
2018-04-23T11:29:49.709Z,3.70
2018-04-23T11:32:17.309Z,3.70
2018-04-23T11:34:44.796Z,3.65
2018-04-23T11:37:11.521Z,3.20
2018-04-23T11:39:38.196Z,4.18
2018-04-23T11:42:04.876Z,4.00
2018-04-23T11:44:31.543Z,5.68
2018-04-23T11:46:58.233Z,8.55
2018-04-23T11:49:25.046Z,13.15
2018-04-23T11:51:51.772Z,9.27
2018-04-23T11:54:18.485Z,7.80
2018-04-23T11:56:45.943Z,11.15
2018-04-23T11:59:12.757Z,10.10
2018-04-23T12:01:39.498Z,6.43
2018-04-23T12:04:06.216Z,7.05
2018-04-23T12:06:32.925Z,9.82
2018-04-23T12:08:59.618Z,6.00
2018-04-23T12:11:26.316Z,10.60
2018-04-23T12:13:52.998Z,6.93
2018-04-23T12:16:19.741Z,7.50
2018-04-23T12:18:46.492Z,6.43
2018-04-23T12:21:13.277Z,4.72
2018-04-23T12:23:39.964Z,5.28
2018-04-23T12:26:06.641Z,4.45
2018-04-23T12:28:33.336Z,4.20
2018-04-23T12:31:00.044Z,7.55
2018-04-23T12:33:26.748Z,7.65
2018-04-23T12:35:53.476Z,8.30
2018-04-23T12:38:20.964Z,7.95
2018-04-23T12:40:47.668Z,6.60
2018-04-23T12:43:15.142Z,5.22
2018-04-23T12:45:41.843Z,4.30
2018-04-23T12:48:08.542Z,4.50
2018-04-23T12:50:35.221Z,5.12
2018-04-23T12:53:01.929Z,4.72
2018-04-23T12:55:29.524Z,4.40
2018-04-23T12:57:56.216Z,4.72
2018-04-23T13:00:22.916Z,4.22
2018-04-23T13:02:49.601Z,4.10
2018-04-23T13:05:16.311Z,4.18
2018-04-23T13:07:43.059Z,3.62
2018-04-23T13:10:09.756Z,3.83
2018-04-23T13:12:36.481Z,4.20
2018-04-23T13:15:03.251Z,4.53
2018-04-23T13:17:29.991Z,4.40
2018-04-23T13:19:58.269Z,4.32
2018-04-23T13:22:25.749Z,4.15
2018-04-23T13:24:52.471Z,4.78
2018-04-23T13:27:19.903Z,4.00
2018-04-23T13:29:46.599Z,4.40
2018-04-23T13:32:13.289Z,4.62
2018-04-23T13:34:40.716Z,4.35
2018-04-23T13:37:07.426Z,3.97
2018-04-23T13:39:36.890Z,4.50
2018-04-23T13:42:04.354Z,4.57
2018-04-23T13:44:31.846Z,4.37
2018-04-23T13:46:58.626Z,4.15
2018-04-23T13:49:25.313Z,4.32
2018-04-23T13:51:52.007Z,4.40
2018-04-23T13:54:18.691Z,5.00
2018-04-23T13:56:45.456Z,5.45
2018-04-23T13:59:12.123Z,4.55
2018-04-23T14:01:38.808Z,4.87
2018-04-23T14:04:05.484Z,5.32
2018-04-23T14:06:32.170Z,5.28
2018-04-23T14:08:58.843Z,5.57
2018-04-23T14:11:25.548Z,5.67
2018-04-23T14:13:52.290Z,5.57
2018-04-23T14:16:19.001Z,5.43
2018-04-23T14:18:45.722Z,8.07
2018-04-23T14:21:12.425Z,5.30
2018-04-23T14:23:39.119Z,5.37
2018-04-23T14:26:06.564Z,5.62
2018-04-23T14:28:33.266Z,5.93
2018-04-23T14:31:00.024Z,5.62
2018-04-23T14:33:26.731Z,5.47
2018-04-23T14:35:53.527Z,5.35
2018-04-23T14:38:20.264Z,5.47
2018-04-23T14:40:46.986Z,5.47
2018-04-23T14:43:13.696Z,4.87
2018-04-23T14:45:40.404Z,5.25
2018-04-23T14:48:07.806Z,5.07
2018-04-23T14:50:34.486Z,4.72
2018-04-23T14:53:01.215Z,5.60
2018-04-23T14:55:27.886Z,4.97
2018-04-23T14:57:55.336Z,5.10
2018-04-23T15:00:22.911Z,4.80
2018-04-23T15:02:49.603Z,4.97
2018-04-23T15:05:16.342Z,5.37
2018-04-23T15:07:43.063Z,5.43
2018-04-23T15:10:09.738Z,5.20
2018-04-23T15:12:37.194Z,5.05
2018-04-23T15:15:04.652Z,5.12
2018-04-23T15:17:31.379Z,5.20
2018-04-23T15:19:58.129Z,5.87
2018-04-23T15:22:25.594Z,4.93
2018-04-23T15:24:53.177Z,5.53
2018-04-23T15:27:19.867Z,5.62
2018-04-23T15:29:46.590Z,5.70
2018-04-23T15:32:13.264Z,5.75
2018-04-23T15:34:40.689Z,5.50
2018-04-23T15:37:07.396Z,5.50
2018-04-23T15:39:34.123Z,5.68
2018-04-23T15:42:00.808Z,4.85
2018-04-23T15:44:27.580Z,5.22
2018-04-23T15:46:55.020Z,5.30
2018-04-23T15:49:21.689Z,5.22
2018-04-23T15:51:48.389Z,5.65
2018-04-23T15:54:15.056Z,5.35
2018-04-23T15:56:41.743Z,5.13
2018-04-23T15:59:08.409Z,5.30
2018-04-23T16:01:35.131Z,5.17
2018-04-23T16:04:01.841Z,5.37
2018-04-23T16:06:28.535Z,5.20
2018-04-23T16:08:55.265Z,5.73
2018-04-23T16:11:21.947Z,5.57
2018-04-23T16:13:48.631Z,5.20
2018-04-23T16:16:15.334Z,5.03
2018-04-23T16:18:42.007Z,5.10
2018-04-23T16:21:08.740Z,5.03
2018-04-23T16:23:35.475Z,5.40
2018-04-23T16:26:02.967Z,5.10
2018-04-23T16:28:29.664Z,5.23
2018-04-23T16:30:56.379Z,4.60
2018-04-23T16:33:28.947Z,4.83
2018-04-23T16:35:56.528Z,5.00
2018-04-23T16:38:23.284Z,4.73
2018-04-23T16:40:50.022Z,5.47
2018-04-23T16:43:16.796Z,4.83
2018-04-23T16:45:44.267Z,4.97
2018-04-23T16:48:11.724Z,4.83
2018-04-23T16:50:39.240Z,4.67
2018-04-23T16:53:05.955Z,4.77
2018-04-23T16:55:32.659Z,4.80
2018-04-23T16:58:00.807Z,4.60
2018-04-23T17:00:27.500Z,4.40
2018-04-23T17:02:54.196Z,4.40
2018-04-23T17:05:20.871Z,4.30
2018-04-23T17:07:47.601Z,4.47
2018-04-23T17:10:14.287Z,4.63
2018-04-23T17:12:40.980Z,4.83
2018-04-23T17:15:07.668Z,4.77
2018-04-23T17:17:34.408Z,4.50
2018-04-23T17:20:01.830Z,4.40
2018-04-23T17:22:28.544Z,4.47
2018-04-23T17:24:55.987Z,4.47
2018-04-23T17:27:23.429Z,4.50
2018-04-23T17:29:50.131Z,4.57
2018-04-23T17:32:17.770Z,4.67
2018-04-23T17:34:44.455Z,4.87
2018-04-23T17:37:11.140Z,4.47
2018-04-23T17:39:37.840Z,4.67
2018-04-23T17:42:04.554Z,4.20
2018-04-23T17:50:33.658Z,4.40
2018-04-23T17:53:00.386Z,4.10
2018-04-23T17:55:27.811Z,3.80
2018-04-23T17:57:54.963Z,3.43
2018-04-23T18:00:21.684Z,4.00
2018-04-23T18:02:48.367Z,3.73
2018-04-23T18:05:15.791Z,3.60
2018-04-23T18:07:42.512Z,3.80
2018-04-23T18:10:09.215Z,4.10
2018-04-23T18:12:35.894Z,3.87
2018-04-23T18:15:02.663Z,3.83
2018-04-23T18:17:30.135Z,4.20
2018-04-23T18:19:56.831Z,3.77
2018-04-23T18:22:23.532Z,3.93
2018-04-23T18:24:50.261Z,6.07
2018-04-23T18:27:16.959Z,4.27
2018-04-23T18:29:43.679Z,4.07
2018-04-23T18:32:10.370Z,3.97
2018-04-23T18:34:37.805Z,4.20
2018-04-23T18:37:04.538Z,4.40
2018-04-23T18:39:31.231Z,4.00
2018-04-23T18:41:57.924Z,4.10
2018-04-23T18:44:25.391Z,4.10
2018-04-23T18:46:52.848Z,3.57
2018-04-23T18:49:20.921Z,3.73
2018-04-23T18:51:48.441Z,3.70
2018-04-23T18:54:15.136Z,3.60
2018-04-23T18:56:41.900Z,4.23
2018-04-23T18:59:08.616Z,4.13
2018-04-23T19:01:35.359Z,3.60
2018-04-23T19:04:03.344Z,3.60
2018-04-23T19:06:30.065Z,4.30
2018-04-23T19:08:56.789Z,3.83
2018-04-23T19:11:24.224Z,3.93
2018-04-23T19:13:51.006Z,3.70
2018-04-23T19:16:17.703Z,4.00
2018-04-23T19:18:44.393Z,4.50
2018-04-23T19:21:11.141Z,3.97
2018-04-23T19:23:37.868Z,4.60
2018-04-23T19:26:04.624Z,4.47
2018-04-23T19:28:31.364Z,4.00
2018-04-23T19:30:58.123Z,4.20
2018-04-23T19:33:24.851Z,4.20
2018-04-23T19:35:51.717Z,4.43
2018-04-23T19:38:18.380Z,4.53
2018-04-23T19:40:45.811Z,4.33
2018-04-23T19:43:12.563Z,4.27
2018-04-23T19:45:39.288Z,4.53
2018-04-23T19:48:05.982Z,4.20
2018-04-23T19:50:32.730Z,3.80
2018-04-23T19:52:59.582Z,3.90
2018-04-23T19:55:26.302Z,4.40
2018-04-23T19:57:53.015Z,4.03
2018-04-23T20:00:20.466Z,4.10
2018-04-23T20:02:47.209Z,4.00
2018-04-23T20:05:15.568Z,3.90
2018-04-23T20:07:42.276Z,3.83
2018-04-23T20:10:09.096Z,4.00
2018-04-23T20:12:36.982Z,4.07
2018-04-23T20:15:03.845Z,3.93
2018-04-23T20:17:30.613Z,3.83
2018-04-23T20:19:57.381Z,4.50
2018-04-23T20:22:24.146Z,4.17
2018-04-23T20:24:50.905Z,3.87
2018-04-23T20:27:17.662Z,4.37
2018-04-23T20:29:45.130Z,4.50
2018-04-23T20:32:12.728Z,4.80
2018-04-23T20:34:40.185Z,4.10
2018-04-23T20:37:07.078Z,3.80
2018-04-23T20:39:34.570Z,3.83
2018-04-23T20:42:01.492Z,4.20
2018-04-23T20:44:28.206Z,4.23
2018-04-23T20:46:54.897Z,4.10
2018-04-23T20:49:21.631Z,3.97
2018-04-23T20:51:48.330Z,4.30
2018-04-23T20:54:15.100Z,4.07
2018-04-23T20:56:41.842Z,3.83
2018-04-23T20:59:08.549Z,4.27
2018-04-23T21:01:35.298Z,4.30
2018-04-23T21:04:02.786Z,4.10
2018-04-23T21:06:29.538Z,3.80
2018-04-23T21:08:56.388Z,4.13
2018-04-23T21:11:23.103Z,4.00
2018-04-23T21:13:49.845Z,4.10
2018-04-23T21:16:16.669Z,4.03
2018-04-23T21:18:43.493Z,4.60
2018-04-23T21:21:11.053Z,4.17
2018-04-23T21:23:38.624Z,4.43
2018-04-23T21:26:06.275Z,4.10
2018-04-23T21:28:33.096Z,4.00
2018-04-23T21:30:59.873Z,4.10
2018-04-23T21:33:26.691Z,3.80
2018-04-23T21:35:53.444Z,4.60
2018-04-23T21:38:20.951Z,4.43
2018-04-23T21:40:47.714Z,4.67
2018-04-23T21:43:14.583Z,4.40
2018-04-23T21:45:42.166Z,4.73
2018-04-23T21:48:08.972Z,4.50
2018-04-23T21:50:35.751Z,4.90
2018-04-23T21:53:02.572Z,4.70
2018-04-23T21:55:30.145Z,4.30
2018-04-23T21:57:56.893Z,4.57
2018-04-23T22:00:23.714Z,4.60
2018-04-23T22:02:51.244Z,4.60
2018-04-23T22:05:18.175Z,4.70
2018-04-23T22:07:45.727Z,5.73
2018-04-23T22:10:13.092Z,5.53
2018-04-23T22:12:41.202Z,4.97
2018-04-23T22:15:08.745Z,4.37
2018-04-23T22:17:35.504Z,4.20
2018-04-23T22:20:02.330Z,3.83
2018-04-23T22:22:31.405Z,3.97
2018-04-23T22:24:58.199Z,4.10
2018-04-23T22:27:24.992Z,4.27
2018-04-23T22:29:51.752Z,4.23
2018-04-23T22:32:18.567Z,4.20
2018-04-23T22:34:45.487Z,3.87
2018-04-23T22:37:12.319Z,4.20
2018-04-23T22:39:39.112Z,3.67
2018-04-23T22:42:07.501Z,3.80
2018-04-23T22:44:35.067Z,3.90
2018-04-23T22:47:01.834Z,4.20
2018-04-23T22:49:29.151Z,4.80
2018-04-23T22:51:56.654Z,4.50
2018-04-23T22:54:23.549Z,4.13
2018-04-23T22:56:51.097Z,4.37
2018-04-23T22:59:18.598Z,5.10
2018-04-23T23:01:45.371Z,4.50
2018-04-23T23:04:12.129Z,4.60
2018-04-23T23:06:39.615Z,5.27
2018-04-23T23:09:06.400Z,5.33
2018-04-23T23:11:33.171Z,5.60
2018-04-23T23:13:59.973Z,5.20
2018-04-23T23:16:26.742Z,5.07
2018-04-23T23:18:54.512Z,5.43
2018-04-23T23:21:21.268Z,5.03
2018-04-23T23:23:48.808Z,5.13
2018-04-23T23:26:16.292Z,5.50
2018-04-23T23:28:43.140Z,5.10
2018-04-23T23:31:09.931Z,5.13
2018-04-23T23:33:36.696Z,5.37
2018-04-23T23:36:03.479Z,4.77
2018-04-23T23:38:30.393Z,5.00
2018-04-23T23:40:57.843Z,4.70
2018-04-23T23:43:25.290Z,5.00
2018-04-23T23:45:51.990Z,5.20
2018-04-23T23:48:18.677Z,5.20
2018-04-23T23:50:46.200Z,4.93
2018-04-23T23:53:12.947Z,4.83
2018-04-23T23:55:39.673Z,4.50
2018-04-23T23:58:06.467Z,4.70
